Angwin, CA

6:03 AM PST on December 11, 2016 (GMT -0800)
AI6QO - Home | | Change Station

Elev 1798 ft 38.58 °N, 122.44 °W | Updated 18 seconds ago

Partly Cloudy
Partly Cloudy
36.2 °F
Feels Like 36 °F
N
0.0
Wind Variable Wind from South

Today
High -- | Low -- °F
--% Chance of Precip.
Yesterday
High -- | Low -- °F
Precip. -- in
Pressure 30.15 in
Visibility 1.5 miles
Clouds Few 200 ft
Windchill 36 °F
Dew Point 36 °F
Humidity 99%
Rainfall 0.00 in
Snow Depth Not available.
7:17 AM 4:48 PM
Waxing Gibbous, 91% visible
METAR KSTS 111353Z AUTO 00000KT 1 1/2SM BR FEW002 03/03 A3016 RMK AO2 SLP209 T00280028 $
Pressure 30.15 in
Visibility 1.5 miles
Clouds Few 200 ft
Windchill 36 °F
Dew Point 36 °F
Humidity 99%
Rainfall 0.00 in
Snow Depth Not available.
7:17 AM 4:48 PM
Waxing Gibbous, 91% visible
METAR KSTS 111353Z AUTO 00000KT 1 1/2SM BR FEW002 03/03 A3016 RMK AO2 SLP209 T00280028 $

10-Day Weather Forecast

Almanac

Astronomy

Dec. 11, 2016 Rise Set
Actual Time
Civil Twilight
Nautical Twilight
Astronomical Twilight
Moon
Length of Visible Light
Length of Day
Tomorrow will be .
, % of the Moon is Illuminated

Today's Extremes

State Highs State Lows

Community

WunderPhotos

Upload Photos

1,956,708 photos uploaded!

WunderBlog® & News

Nearby

Air Quality

  Air Quality AQ Index Pollutant
Not available.

Snow Depth

Station Depth Elevation

Earthquake Activity

City Distance Mag. Time & Date
Minimum magnitude displayed is 2.5.

Coastal Water Temperatures

Place Temperature

Stations

Nearby Weather Stations

Station Location Temp. Windchill Dew Point Humidity Wind Precip. Elev Updated Type
                   

Watches & Warnings

There are currently no watches in effect.